createdAt,value
2023-01-04T00:01:40.625Z,98.00
2023-01-04T00:05:02.900Z,98.20
2023-01-04T00:08:25.456Z,98.10
2023-01-04T00:11:47.678Z,98.20
2023-01-04T00:15:10.140Z,98.30
2023-01-04T00:18:33.025Z,98.40
2023-01-04T00:21:55.170Z,98.40
2023-01-04T00:25:17.671Z,98.40
2023-01-04T00:28:39.897Z,98.60
2023-01-04T00:32:02.165Z,98.60
2023-01-04T00:35:44.612Z,98.70
2023-01-04T00:39:07.938Z,98.70
2023-01-04T00:42:30.500Z,98.70
2023-01-04T00:45:52.736Z,98.80
2023-01-04T00:49:14.997Z,98.80
2023-01-04T00:52:37.162Z,99.00
2023-01-04T00:56:00.630Z,99.00
2023-01-04T00:59:23.399Z,99.00
2023-01-04T01:02:45.807Z,99.00
2023-01-04T01:06:08.520Z,99.10
2023-01-04T01:09:30.767Z,99.10
2023-01-04T01:12:52.929Z,99.20
2023-01-04T01:16:16.350Z,99.20
2023-01-04T01:19:38.629Z,99.20
2023-01-04T01:23:00.735Z,99.30
2023-01-04T01:26:23.729Z,99.50
2023-01-04T01:29:45.873Z,99.60
2023-01-04T01:33:08.911Z,99.50
2023-01-04T01:36:31.132Z,99.50
2023-01-04T01:39:53.311Z,99.50
2023-01-04T01:43:19.405Z,99.60
2023-01-04T01:46:47.056Z,99.60
2023-01-04T01:50:17.819Z,99.70
2023-01-04T01:53:41.420Z,99.70
2023-01-04T01:57:04.970Z,99.70
2023-01-04T02:00:27.943Z,99.90
2023-01-04T02:03:50.198Z,99.80
2023-01-04T02:07:14.768Z,99.90
2023-01-04T02:10:36.964Z,99.80
2023-01-04T02:14:18.976Z,99.90
2023-01-04T02:17:47.026Z,99.80
2023-01-04T02:21:16.520Z,99.90
2023-01-04T02:25:01.907Z,99.80
2023-01-04T02:28:26.670Z,99.90
2023-01-04T02:31:48.872Z,99.90
2023-01-04T02:35:30.890Z,99.90
2023-01-04T02:39:11.844Z,99.90
2023-01-04T02:42:55.581Z,99.90
2023-01-04T02:46:22.186Z,99.90
2023-01-04T02:50:05.449Z,99.90
2023-01-04T02:53:29.827Z,99.90
2023-01-04T02:57:10.364Z,99.90
2023-01-04T03:01:01.195Z,99.90
2023-01-04T03:05:06.559Z,99.90
2023-01-04T03:08:34.209Z,99.90
2023-01-04T03:12:17.460Z,99.90
2023-01-04T03:15:41.167Z,99.90
2023-01-04T03:19:09.497Z,99.90
2023-01-04T03:22:58.652Z,99.90
2023-01-04T03:26:42.464Z,99.90
2023-01-04T03:30:26.181Z,99.90
2023-01-04T03:34:08.777Z,99.90
2023-01-04T03:37:41.465Z,99.90
2023-01-04T03:41:24.999Z,99.90
2023-01-04T03:45:09.985Z,99.90
2023-01-04T03:48:44.798Z,99.90
2023-01-04T03:52:07.790Z,99.90
2023-01-04T03:55:31.139Z,99.90
2023-01-04T03:58:54.820Z,99.90
2023-01-04T04:02:22.700Z,99.90
2023-01-04T04:06:04.380Z,99.90
2023-01-04T04:09:26.543Z,99.90
2023-01-04T04:12:48.933Z,99.90
2023-01-04T04:16:11.167Z,99.90
2023-01-04T04:19:33.311Z,99.90
2023-01-04T04:22:55.574Z,99.90
2023-01-04T04:26:17.754Z,99.90
2023-01-04T04:29:41.958Z,99.90
2023-01-04T04:33:04.138Z,99.90
2023-01-04T04:36:26.284Z,99.90
2023-01-04T04:39:48.490Z,99.90
2023-01-04T04:43:10.705Z,99.90
2023-01-04T04:46:32.831Z,99.90
2023-01-04T04:49:55.042Z,99.90
2023-01-04T04:53:17.214Z,99.90
2023-01-04T04:56:39.495Z,99.90
2023-01-04T05:00:01.672Z,99.90
2023-01-04T05:03:24.069Z,99.90
2023-01-04T05:06:47.133Z,99.90
2023-01-04T05:10:09.801Z,99.90
2023-01-04T05:13:31.929Z,99.90
2023-01-04T05:16:54.460Z,99.90
2023-01-04T05:20:16.692Z,99.90
2023-01-04T05:23:38.838Z,99.90
2023-01-04T05:27:01.158Z,99.90
2023-01-04T05:30:42.205Z,99.90
2023-01-04T05:34:04.315Z,99.90
2023-01-04T05:37:26.530Z,99.90
2023-01-04T05:40:48.814Z,99.90
2023-01-04T05:44:10.940Z,99.90
2023-01-04T05:47:33.262Z,99.90
2023-01-04T05:50:55.449Z,99.90
2023-01-04T05:54:21.341Z,99.90
2023-01-04T05:57:43.914Z,99.90
2023-01-04T06:01:07.724Z,99.90
2023-01-04T06:04:30.316Z,99.80
2023-01-04T06:07:52.900Z,99.50
2023-01-04T06:11:15.035Z,99.40
2023-01-04T06:14:37.179Z,99.50
2023-01-04T06:17:59.466Z,99.40
2023-01-04T06:21:21.614Z,99.50
2023-01-04T06:24:43.797Z,99.50
2023-01-04T06:28:06.046Z,99.50
2023-01-04T06:31:28.259Z,99.70
2023-01-04T06:34:50.459Z,99.40
2023-01-04T06:38:12.679Z,99.50
2023-01-04T06:41:35.091Z,99.90
2023-01-04T06:44:57.290Z,99.90
2023-01-04T06:48:19.404Z,99.90
2023-01-04T06:51:41.667Z,99.90
2023-01-04T06:55:03.915Z,99.90
2023-01-04T06:58:26.150Z,99.70
2023-01-04T07:01:48.448Z,99.90
2023-01-04T07:05:10.732Z,99.80
2023-01-04T07:08:33.593Z,99.90
2023-01-04T07:11:55.737Z,99.80
2023-01-04T07:15:38.327Z,99.90
2023-01-04T07:19:00.115Z,99.90
2023-01-04T07:22:22.271Z,99.90
2023-01-04T07:25:44.458Z,99.90
2023-01-04T07:29:15.718Z,99.90
2023-01-04T07:32:37.882Z,99.90
2023-01-04T07:36:03.738Z,99.90
2023-01-04T07:39:26.064Z,99.90
2023-01-04T07:42:56.791Z,99.90
2023-01-04T07:46:19.015Z,99.90
2023-01-04T07:49:41.166Z,99.90
2023-01-04T07:53:03.406Z,99.90
2023-01-04T07:56:25.582Z,99.90
2023-01-04T07:59:47.789Z,99.90
2023-01-04T08:03:11.484Z,99.90
2023-01-04T08:06:34.129Z,99.60
2023-01-04T08:09:56.285Z,99.90
2023-01-04T08:13:18.464Z,99.90
2023-01-04T08:16:41.693Z,99.90
2023-01-04T08:20:04.148Z,99.90
2023-01-04T08:23:26.283Z,99.90
2023-01-04T08:26:48.537Z,99.90
2023-01-04T08:30:10.787Z,99.90
2023-01-04T08:33:33.227Z,99.90
2023-01-04T08:36:55.420Z,99.90
2023-01-04T08:40:17.694Z,99.90
2023-01-04T08:43:39.858Z,99.90
2023-01-04T08:47:02.484Z,99.90
2023-01-04T08:50:24.798Z,99.90
2023-01-04T08:53:47.110Z,99.90
2023-01-04T08:57:09.321Z,99.90
2023-01-04T09:00:31.492Z,99.90
2023-01-04T09:03:55.655Z,99.90
2023-01-04T09:07:18.273Z,99.90
2023-01-04T09:10:40.405Z,99.90
2023-01-04T09:14:08.044Z,99.90
2023-01-04T09:17:30.950Z,99.90
2023-01-04T09:20:53.094Z,99.90
2023-01-04T09:24:15.255Z,99.90
2023-01-04T09:27:39.852Z,99.90
2023-01-04T09:31:09.483Z,99.90
2023-01-04T09:34:31.803Z,99.90
2023-01-04T09:37:54.853Z,99.90
2023-01-04T09:41:25.982Z,99.90
2023-01-04T09:45:26.920Z,99.90
2023-01-04T09:48:51.484Z,99.90
2023-01-04T09:52:17.069Z,99.90
2023-01-04T09:55:45.771Z,99.90
2023-01-04T09:59:12.446Z,99.90
2023-01-04T10:02:43.000Z,99.90
2023-01-04T10:06:11.816Z,99.90
2023-01-04T10:09:34.053Z,99.90
2023-01-04T10:13:03.699Z,99.90
2023-01-04T10:17:11.797Z,99.90
2023-01-04T10:24:35.110Z,99.90
2023-01-04T10:27:57.299Z,99.90
2023-01-04T10:31:40.253Z,99.90
2023-01-04T10:35:13.184Z,99.90
2023-01-04T10:38:36.814Z,99.90
2023-01-04T10:42:14.447Z,99.90
2023-01-04T10:45:39.329Z,99.90
2023-01-04T10:49:21.861Z,99.90
2023-01-04T10:52:47.251Z,99.90
2023-01-04T10:56:26.428Z,99.90
2023-01-04T11:00:00.205Z,99.90
2023-01-04T11:03:51.953Z,99.90
2023-01-04T11:07:20.297Z,99.90
2023-01-04T11:10:45.081Z,99.90
2023-01-04T11:14:07.310Z,99.90
2023-01-04T11:17:30.735Z,99.90
2023-01-04T11:20:53.021Z,99.90
2023-01-04T11:24:32.050Z,99.90
2023-01-04T11:27:57.743Z,99.90
2023-01-04T11:31:43.262Z,99.90
2023-01-04T11:35:05.681Z,99.90
2023-01-04T11:38:30.637Z,99.90
2023-01-04T11:42:02.565Z,99.90
2023-01-04T11:45:26.871Z,99.90
2023-01-04T11:48:49.230Z,99.90
2023-01-04T11:52:31.619Z,99.90
2023-01-04T11:56:09.290Z,99.90
2023-01-04T11:59:31.442Z,99.90
2023-01-04T12:03:09.595Z,99.90
2023-01-04T12:06:34.809Z,99.90
2023-01-04T12:09:58.510Z,99.90
2023-01-04T12:13:20.763Z,99.90
2023-01-04T12:16:45.898Z,99.90
2023-01-04T12:20:18.867Z,99.90
2023-01-04T12:23:41.809Z,99.90
2023-01-04T12:27:04.562Z,99.90
2023-01-04T12:30:34.813Z,99.90
2023-01-04T12:33:58.268Z,99.90
2023-01-04T12:37:42.661Z,99.90
2023-01-04T12:40:59.350Z,99.90
2023-01-04T12:44:44.325Z,99.90
2023-01-04T12:48:56.004Z,99.90
2023-01-04T12:52:32.443Z,99.90
2023-01-04T12:56:02.163Z,99.90
2023-01-04T12:59:53.152Z,99.90
2023-01-04T13:03:16.015Z,99.90
2023-01-04T13:06:44.583Z,99.90
2023-01-04T13:10:33.392Z,99.90
2023-01-04T13:14:00.352Z,99.90
2023-01-04T13:17:23.698Z,99.90
2023-01-04T13:20:46.032Z,99.90
2023-01-04T13:24:23.640Z,99.90
2023-01-04T13:27:56.047Z,99.90
2023-01-04T13:31:18.325Z,99.90
2023-01-04T13:34:55.767Z,99.90
2023-01-04T13:38:18.078Z,99.90
2023-01-04T13:41:43.720Z,99.90
2023-01-04T13:45:24.278Z,99.90
2023-01-04T13:48:47.878Z,99.90
2023-01-04T13:56:05.669Z,99.90
2023-01-04T13:59:27.949Z,99.90
2023-01-04T14:03:09.086Z,99.90
2023-01-04T14:06:39.349Z,99.90
2023-01-04T14:10:01.624Z,99.90
2023-01-04T14:13:24.052Z,99.90
2023-01-04T14:16:46.630Z,99.90
2023-01-04T14:20:12.655Z,99.90
2023-01-04T14:23:38.631Z,99.90
2023-01-04T14:27:00.900Z,99.90
2023-01-04T14:30:24.260Z,99.90
2023-01-04T14:33:47.881Z,99.90
2023-01-04T14:37:10.095Z,99.90
2023-01-04T14:40:32.731Z,99.90
2023-01-04T14:44:00.926Z,99.90
2023-01-04T14:47:23.125Z,99.90
2023-01-04T14:50:45.337Z,99.90
2023-01-04T14:54:07.931Z,99.90
2023-01-04T14:57:30.288Z,99.90
2023-01-04T15:00:52.452Z,99.90
2023-01-04T15:04:14.735Z,99.90
2023-01-04T15:07:39.987Z,99.90
2023-01-04T15:11:02.569Z,99.90
2023-01-04T15:14:24.885Z,99.90
2023-01-04T15:17:47.474Z,99.90
2023-01-04T15:21:09.922Z,99.90
2023-01-04T15:24:32.190Z,99.90
2023-01-04T15:27:54.296Z,99.90
2023-01-04T15:31:18.687Z,99.90
2023-01-04T15:34:46.801Z,99.90
2023-01-04T15:38:14.418Z,99.90
2023-01-04T15:41:58.621Z,99.90
2023-01-04T15:45:22.899Z,99.90
2023-01-04T15:48:45.053Z,99.90
2023-01-04T15:52:07.251Z,99.90
2023-01-04T15:55:34.152Z,99.90
2023-01-04T15:58:58.434Z,99.90
2023-01-04T16:02:21.166Z,99.90
2023-01-04T16:05:43.487Z,99.90
2023-01-04T16:09:05.827Z,99.90
2023-01-04T16:12:43.169Z,99.90
2023-01-04T16:16:05.609Z,99.90
2023-01-04T16:19:27.932Z,99.90
2023-01-04T16:22:50.115Z,99.90
2023-01-04T16:26:15.328Z,99.90
2023-01-04T16:29:37.574Z,99.90
2023-01-04T16:32:59.730Z,99.90
2023-01-04T16:36:22.092Z,99.90
2023-01-04T16:43:26.836Z,99.90
2023-01-04T16:46:49.218Z,99.90
2023-01-04T16:50:12.455Z,99.90
2023-01-04T16:53:35.137Z,99.90
2023-01-04T16:56:58.992Z,99.90
2023-01-04T17:00:21.282Z,99.90
2023-01-04T17:03:44.326Z,99.90
2023-01-04T17:07:06.623Z,99.90
2023-01-04T17:10:29.848Z,99.90
2023-01-04T17:13:52.320Z,99.90
2023-01-04T17:17:14.477Z,99.90
2023-01-04T17:20:38.040Z,99.90
2023-01-04T17:24:00.347Z,99.90
2023-01-04T17:27:22.531Z,99.90
2023-01-04T17:30:44.707Z,99.90
2023-01-04T17:34:08.261Z,99.90
2023-01-04T17:37:30.439Z,99.90
2023-01-04T17:40:52.632Z,99.90
2023-01-04T17:44:14.793Z,99.90
2023-01-04T17:47:36.990Z,99.90
2023-01-04T17:51:05.567Z,99.90
2023-01-04T17:54:27.817Z,99.90
2023-01-04T17:57:50.126Z,99.90
2023-01-04T18:01:12.364Z,99.90
2023-01-04T18:04:34.566Z,99.90
2023-01-04T18:07:58.547Z,99.90
2023-01-04T18:11:21.118Z,99.90
2023-01-04T18:14:43.781Z,99.90
2023-01-04T18:18:05.959Z,99.90
2023-01-04T18:21:30.796Z,99.90
2023-01-04T18:24:53.065Z,99.90
2023-01-04T18:28:15.426Z,99.90
2023-01-04T18:31:37.754Z,99.90
2023-01-04T18:35:05.150Z,99.90
2023-01-04T18:38:27.289Z,99.90
2023-01-04T18:41:49.481Z,99.90
2023-01-04T18:45:11.659Z,99.90
2023-01-04T18:48:34.096Z,99.90
2023-01-04T18:51:56.314Z,99.90
2023-01-04T18:55:18.540Z,99.90
2023-01-04T18:58:40.866Z,99.90
2023-01-04T19:02:03.888Z,99.90
2023-01-04T19:05:27.727Z,99.90
2023-01-04T19:08:56.299Z,99.90
2023-01-04T19:12:20.370Z,99.90
2023-01-04T19:15:47.490Z,99.90
2023-01-04T19:19:10.388Z,99.90
2023-01-04T19:22:32.534Z,99.90
2023-01-04T19:25:54.871Z,99.90
2023-01-04T19:29:17.096Z,99.90
2023-01-04T19:32:39.218Z,99.90
2023-01-04T19:36:01.614Z,99.90
2023-01-04T19:39:23.969Z,99.90
2023-01-04T19:42:47.071Z,99.90
2023-01-04T19:46:09.963Z,99.90
2023-01-04T19:49:32.157Z,99.90
2023-01-04T19:52:56.643Z,99.90
2023-01-04T19:56:18.821Z,99.90
2023-01-04T19:59:40.986Z,99.90
2023-01-04T20:03:03.480Z,99.90
2023-01-04T20:06:25.864Z,99.90
2023-01-04T20:09:48.748Z,99.90
2023-01-04T20:13:10.912Z,99.90
2023-01-04T20:16:33.081Z,99.90
2023-01-04T20:19:55.210Z,99.90
2023-01-04T20:23:20.003Z,99.90
2023-01-04T20:26:42.221Z,99.90
2023-01-04T20:30:04.668Z,99.90
2023-01-04T20:33:26.830Z,99.90
2023-01-04T20:36:48.966Z,99.90
2023-01-04T20:40:11.374Z,99.90
2023-01-04T20:43:33.545Z,99.90
2023-01-04T20:46:55.781Z,99.90
2023-01-04T20:50:18.005Z,99.90
2023-01-04T20:53:40.200Z,99.90
2023-01-04T20:57:02.463Z,99.90
2023-01-04T21:00:24.758Z,99.90
2023-01-04T21:03:47.353Z,99.90
2023-01-04T21:07:09.565Z,99.90
2023-01-04T21:10:31.951Z,99.90
2023-01-04T21:13:54.115Z,99.90
2023-01-04T21:17:16.318Z,99.90
2023-01-04T21:20:42.376Z,99.90
2023-01-04T21:24:04.706Z,99.90
2023-01-04T21:27:27.014Z,99.90
2023-01-04T21:30:49.530Z,99.90
2023-01-04T21:34:14.418Z,99.90
2023-01-04T21:37:39.357Z,99.90
2023-01-04T21:41:06.659Z,99.90
2023-01-04T21:44:28.844Z,99.90
2023-01-04T21:47:51.159Z,99.90
2023-01-04T21:51:14.075Z,99.90
2023-01-04T21:54:36.979Z,99.90
2023-01-04T21:57:59.135Z,99.90
2023-01-04T22:01:23.084Z,99.90
2023-01-04T22:04:45.953Z,99.90
2023-01-04T22:08:08.198Z,99.90
2023-01-04T22:11:30.369Z,99.90
2023-01-04T22:14:52.579Z,99.90
2023-01-04T22:18:15.503Z,99.90
2023-01-04T22:21:37.732Z,99.90
2023-01-04T22:24:59.905Z,99.90
2023-01-04T22:28:22.064Z,99.90
2023-01-04T22:31:44.318Z,99.90
2023-01-04T22:35:06.618Z,99.90
2023-01-04T22:38:28.825Z,99.90
2023-01-04T22:41:51.033Z,99.90
2023-01-04T22:45:13.721Z,99.90
2023-01-04T22:48:35.985Z,99.90
2023-01-04T22:51:58.353Z,99.90
2023-01-04T22:55:21.189Z,99.90
2023-01-04T22:58:46.871Z,99.90
2023-01-04T23:02:14.707Z,99.90
2023-01-04T23:05:39.545Z,99.90
2023-01-04T23:09:06.299Z,99.90
2023-01-04T23:12:29.412Z,99.90
2023-01-04T23:15:51.639Z,99.90
2023-01-04T23:19:14.380Z,99.90
2023-01-04T23:22:36.540Z,99.90
2023-01-04T23:26:03.620Z,99.90
2023-01-04T23:29:29.226Z,99.90
2023-01-04T23:32:51.713Z,99.90
2023-01-04T23:36:13.905Z,99.90
2023-01-04T23:39:36.103Z,99.90
2023-01-04T23:42:59.505Z,99.90
2023-01-04T23:46:21.688Z,99.90
2023-01-04T23:49:45.948Z,99.90
2023-01-04T23:53:08.391Z,99.90
2023-01-04T23:56:30.484Z,99.90
2023-01-04T23:59:52.638Z,99.90
